Time;durP1;ratioP1;P1;durP2;ratioP2;P2;SDS_P1;SDS_P2;PMS_P1;PMS_P2;Temp;Humidity;BMP_temperature;BMP_pressure;BME280_temperature;BME280_humidity;BME280_pressure;Samples;Min_cycle;Max_cycle;Signal;HPM_P1;HPM_P2
2023/04/18 00:01:33;;;;;;;14.40;13.30;;;;;;;7.66;100.00;100759.63;5036815;28;20547;-75
2023/04/18 00:03:58;;;;;;;15.17;13.93;;;;;;;7.63;100.00;100756.22;5035581;28;20586;-76
2023/04/18 00:06:24;;;;;;;14.83;13.53;;;;;;;7.62;100.00;100753.59;5035189;28;20260;-75
2023/04/18 00:08:50;;;;;;;15.10;13.90;;;;;;;7.58;100.00;100750.13;5030478;28;20189;-74
2023/04/18 00:11:15;;;;;;;14.23;13.03;;;;;;;7.52;100.00;100750.06;5028013;28;20213;-76
2023/04/18 00:13:42;;;;;;;14.57;13.37;;;;;;;7.44;100.00;100746.53;5036942;28;20872;-76
2023/04/18 00:16:07;;;;;;;15.07;13.87;;;;;;;7.37;100.00;100744.72;5033571;28;20217;-75
2023/04/18 00:18:33;;;;;;;14.03;12.93;;;;;;;7.29;100.00;100737.81;5034940;28;20579;-76
2023/04/18 00:20:58;;;;;;;15.07;13.87;;;;;;;7.26;100.00;100742.06;5028896;28;20216;-75
2023/04/18 00:23:26;;;;;;;15.23;13.93;;;;;;;7.25;100.00;100742.91;5027022;28;20272;-77
2023/04/18 00:25:52;;;;;;;14.97;13.77;;;;;;;7.16;100.00;100741.94;5033544;28;20212;-76
2023/04/18 00:28:17;;;;;;;15.10;13.87;;;;;;;7.13;100.00;100741.88;5029102;28;20197;-75
2023/04/18 00:30:43;;;;;;;15.17;13.97;;;;;;;7.07;100.00;100739.25;5037201;28;20201;-74
2023/04/18 00:33:08;;;;;;;15.67;14.47;;;;;;;7.02;100.00;100738.31;5036273;28;20221;-75
2023/04/18 00:35:33;;;;;;;15.70;14.43;;;;;;;7.00;100.00;100734.84;5039721;28;20299;-74
2023/04/18 00:37:59;;;;;;;16.13;14.83;;;;;;;6.95;100.00;100734.78;5032616;28;20186;-75
2023/04/18 00:40:24;;;;;;;17.27;15.87;;;;;;;6.93;100.00;100731.34;5036518;28;20184;-75
2023/04/18 00:42:49;;;;;;;16.50;15.10;;;;;;;6.89;100.00;100739.84;5047534;28;20196;-76
2023/04/18 00:45:15;;;;;;;16.07;14.67;;;;;;;6.89;100.00;100739.00;5031202;28;20212;-75
2023/04/18 00:47:40;;;;;;;15.40;14.20;;;;;;;6.83;100.00;100739.78;5034099;28;20305;-76
2023/04/18 00:50:06;;;;;;;16.40;15.10;;;;;;;6.80;100.00;100742.31;5022386;28;20200;-75
2023/04/18 00:52:34;;;;;;;16.70;15.40;;;;;;;6.77;100.00;100744.84;5037728;28;20223;-75
2023/04/18 00:55:01;;;;;;;17.07;15.57;;;;;;;6.77;100.00;100742.25;5025433;28;20205;-75
2023/04/18 00:57:26;;;;;;;16.67;15.27;;;;;;;6.74;100.00;100742.22;5032351;28;20242;-74
2023/04/18 00:59:52;;;;;;;17.90;16.37;;;;;;;6.74;100.00;100744.78;5032098;28;20195;-76
2023/04/18 01:02:17;;;;;;;16.57;15.27;;;;;;;6.67;100.00;100744.72;5025817;28;20189;-76
2023/04/18 01:04:43;;;;;;;17.13;15.63;;;;;;;6.65;100.00;100745.53;5029067;28;20664;-76
2023/04/18 01:07:08;;;;;;;17.60;16.00;;;;;;;6.64;100.00;100741.25;5025432;28;20291;-76
2023/04/18 01:09:35;;;;;;;18.57;16.83;;;;;;;6.63;100.00;100737.78;5026685;28;20199;-76
2023/04/18 01:12:00;;;;;;;18.17;16.50;;;;;;;6.62;100.00;100737.78;5030334;28;20237;-75
2023/04/18 01:14:26;;;;;;;16.97;15.43;;;;;;;6.61;100.00;100730.91;5034179;28;20185;-76
2023/04/18 01:16:52;;;;;;;18.03;16.33;;;;;;;6.66;100.00;100729.25;5043178;28;20210;-76
2023/04/18 01:19:17;;;;;;;18.23;16.63;;;;;;;6.71;100.00;100722.47;5028609;28;20240;-79
2023/04/18 01:21:42;;;;;;;17.80;16.30;;;;;;;6.75;100.00;100723.38;5034664;28;20185;-75
2023/04/18 01:24:10;;;;;;;17.43;15.80;;;;;;;6.85;100.00;100718.38;5027007;28;20195;-76
2023/04/18 01:26:35;;;;;;;17.80;16.20;;;;;;;6.92;100.00;100719.31;5031897;28;20224;-77
2023/04/18 01:29:00;;;;;;;16.67;15.27;;;;;;;6.95;100.00;100714.22;5033105;28;20197;-76
2023/04/18 01:31:25;;;;;;;16.17;14.83;;;;;;;6.97;100.00;100709.06;5033397;28;20224;-75
2023/04/18 01:33:51;;;;;;;15.37;14.00;;;;;;;7.00;100.00;100710.00;5030737;28;20870;-75
2023/04/18 01:36:16;;;;;;;16.60;15.10;;;;;;;6.99;100.00;100713.41;5031254;28;20696;-76
2023/04/18 01:38:41;;;;;;;15.73;14.47;;;;;;;7.01;100.00;100709.16;5037320;28;20190;-76
2023/04/18 01:41:07;;;;;;;14.63;13.43;;;;;;;7.06;100.00;100706.63;5033199;28;20225;-76
2023/04/18 01:43:32;;;;;;;15.43;13.93;;;;;;;7.09;100.00;100693.81;5034760;28;20265;-74
2023/04/18 01:45:57;;;;;;;15.40;14.10;;;;;;;7.12;100.00;100701.53;5034303;28;20232;-72
2023/04/18 01:48:22;;;;;;;14.60;13.30;;;;;;;7.14;100.00;100702.44;5037301;28;20200;-75
2023/04/18 01:50:48;;;;;;;15.83;14.33;;;;;;;7.17;100.00;100704.19;5028280;28;20193;-76
2023/04/18 01:53:13;;;;;;;14.67;13.43;;;;;;;7.19;100.00;100702.47;5027460;28;20201;-75
2023/04/18 01:55:39;;;;;;;14.50;13.20;;;;;;;7.20;100.00;100700.78;5032396;28;20212;-76
2023/04/18 01:58:04;;;;;;;14.20;13.00;;;;;;;7.20;100.00;100701.63;5033001;28;20224;-75
2023/04/18 02:00:29;;;;;;;15.43;14.00;;;;;;;7.21;100.00;100698.22;5023378;28;20197;-76
2023/04/18 02:02:57;;;;;;;15.17;13.87;;;;;;;7.23;100.00;100700.81;5023244;28;20391;-75
2023/04/18 02:05:23;;;;;;;14.30;13.20;;;;;;;7.24;100.00;100695.69;5032083;28;20237;-76
2023/04/18 02:07:49;;;;;;;14.83;13.50;;;;;;;7.26;100.00;100695.72;5028008;28;20289;-77
2023/04/18 02:10:14;;;;;;;14.67;13.47;;;;;;;7.27;100.00;100697.41;5033138;28;20208;-76
2023/04/18 02:12:39;;;;;;;15.00;13.70;;;;;;;7.29;100.00;100694.03;5044024;28;20251;-74
2023/04/18 02:15:05;;;;;;;14.03;12.83;;;;;;;7.32;100.00;100693.19;5029241;28;20863;-74
2023/04/18 02:17:31;;;;;;;14.70;13.40;;;;;;;7.35;100.00;100695.81;5045689;28;20212;-76
2023/04/18 02:19:56;;;;;;;14.57;13.27;;;;;;;7.36;100.00;100694.97;5056519;28;20197;-76
2023/04/18 02:22:21;;;;;;;15.07;13.77;;;;;;;7.37;100.00;100696.69;5048984;28;20193;-75
2023/04/18 02:24:47;;;;;;;13.67;12.47;;;;;;;7.39;100.00;100694.13;5040553;28;20185;-74
2023/04/18 02:27:12;;;;;;;15.00;13.70;;;;;;;7.41;100.00;100692.44;5029749;28;20632;-75
2023/04/18 02:29:38;;;;;;;15.20;13.90;;;;;;;7.44;100.00;100695.03;5035135;28;20216;-75
2023/04/18 02:32:03;;;;;;;15.33;13.93;;;;;;;7.41;100.00;100693.28;5034161;28;20304;-75
2023/04/18 02:34:28;;;;;;;15.87;14.47;;;;;;;7.41;100.00;100695.00;5040734;28;20197;-75
2023/04/18 02:36:54;;;;;;;15.17;13.87;;;;;;;7.42;100.00;100684.69;5036266;28;20212;-75
2023/04/18 02:39:19;;;;;;;14.67;13.30;;;;;;;7.46;100.00;100694.19;5033793;28;20236;-75
2023/04/18 02:41:45;;;;;;;16.13;14.63;;;;;;;7.46;100.00;100703.66;5028220;28;20193;-76
2023/04/18 02:44:10;;;;;;;14.73;13.53;;;;;;;7.46;100.00;100686.47;5034774;28;20189;-75
2023/04/18 02:46:35;;;;;;;15.90;14.40;;;;;;;7.46;100.00;100690.78;5025826;28;20225;-75
2023/04/18 02:49:01;;;;;;;15.77;14.37;;;;;;;7.46;100.00;100686.47;5026040;28;20196;-75
2023/04/18 02:51:26;;;;;;;16.10;14.70;;;;;;;7.44;100.00;100687.31;5035369;28;20589;-75
2023/04/18 02:53:53;;;;;;;16.20;14.70;;;;;;;7.45;100.00;100691.63;5030039;28;20201;-76
2023/04/18 02:56:20;;;;;;;15.27;14.03;;;;;;;7.46;100.00;100690.78;5029041;28;20242;-76
2023/04/18 02:58:46;;;;;;;15.77;14.37;;;;;;;7.46;100.00;100689.06;5038096;28;20215;-75
2023/04/18 03:01:11;;;;;;;15.90;14.50;;;;;;;7.50;100.00;100686.50;5034681;28;20927;-76
2023/04/18 03:03:36;;;;;;;15.13;13.83;;;;;;;7.50;100.00;100696.81;5051834;28;20226;-75
2023/04/18 03:06:02;;;;;;;16.33;14.83;;;;;;;7.52;100.00;100690.81;5028580;28;20380;-75
2023/04/18 03:08:27;;;;;;;15.60;14.10;;;;;;;7.53;100.00;100683.97;5031338;28;20285;-76
2023/04/18 03:10:54;;;;;;;16.27;14.77;;;;;;;7.53;100.00;100686.56;5032167;28;20239;-75
2023/04/18 03:13:19;;;;;;;15.83;14.43;;;;;;;7.52;100.00;100685.66;5027496;28;20210;-75
2023/04/18 03:15:44;;;;;;;15.23;13.93;;;;;;;7.53;100.00;100689.13;5028224;28;20713;-76
2023/04/18 03:18:11;;;;;;;16.33;14.93;;;;;;;7.50;100.00;100684.78;5032809;28;20207;-77
2023/04/18 03:20:37;;;;;;;15.57;14.17;;;;;;;7.50;100.00;100689.94;5029227;28;20194;-75
2023/04/18 03:23:02;;;;;;;16.60;15.07;;;;;;;7.49;100.00;100683.06;5032976;28;20189;-75
2023/04/18 03:25:27;;;;;;;16.10;14.70;;;;;;;7.47;100.00;100690.78;5031170;28;20219;-75
2023/04/18 03:27:53;;;;;;;16.57;15.00;;;;;;;7.43;100.00;100690.75;5024905;28;20252;-74
2023/04/18 03:30:19;;;;;;;16.47;15.07;;;;;;;7.42;100.00;100686.44;5030184;28;20654;-76
2023/04/18 03:32:47;;;;;;;16.13;14.67;;;;;;;7.42;100.00;100694.16;5028162;28;20697;-77
2023/04/18 03:35:13;;;;;;;16.67;15.27;;;;;;;7.39;100.00;100694.13;5025004;28;20527;-76
2023/04/18 03:37:38;;;;;;;16.70;15.20;;;;;;;7.35;100.00;100688.09;5033113;28;20988;-76
2023/04/18 03:40:04;;;;;;;17.57;15.97;;;;;;;7.37;100.00;100691.53;5025202;28;20199;-76
2023/04/18 03:42:29;;;;;;;18.00;16.17;;;;;;;7.35;100.00;100694.94;5039333;28;20196;-76
2023/04/18 03:44:55;;;;;;;17.80;16.30;;;;;;;7.35;100.00;100684.63;5029122;28;20195;-74
2023/04/18 03:47:20;;;;;;;16.77;15.37;;;;;;;7.33;100.00;100688.03;5034603;28;20220;-77
2023/04/18 03:49:45;;;;;;;16.90;15.40;;;;;;;7.35;100.00;100693.22;5024038;28;20204;-75
2023/04/18 03:52:10;;;;;;;16.27;14.87;;;;;;;7.37;100.00;100688.97;5036283;28;20205;-75
2023/04/18 03:54:36;;;;;;;16.13;14.73;;;;;;;7.37;100.00;100691.53;5037325;28;20207;-76
2023/04/18 03:57:01;;;;;;;17.20;15.60;;;;;;;7.37;100.00;100693.22;5027256;28;20210;-76
2023/04/18 03:59:28;;;;;;;16.47;15.03;;;;;;;7.36;100.00;100688.94;5031431;28;20193;-75
2023/04/18 04:01:53;;;;;;;17.47;15.97;;;;;;;7.39;100.00;100683.81;5028696;28;20252;-76
2023/04/18 04:04:18;;;;;;;17.03;15.53;;;;;;;7.40;100.00;100685.53;5038079;28;20600;-76
2023/04/18 04:06:44;;;;;;;16.70;15.23;;;;;;;7.40;100.00;100685.53;5035826;28;20223;-73
2023/04/18 04:09:09;;;;;;;16.63;15.03;;;;;;;7.42;100.00;100696.72;5041435;28;20244;-76
2023/04/18 04:11:35;;;;;;;16.93;15.47;;;;;;;7.38;100.00;100693.28;5042783;28;20274;-76
2023/04/18 04:14:01;;;;;;;17.17;15.60;;;;;;;7.40;100.00;100685.53;5041172;28;20196;-75
2023/04/18 04:16:26;;;;;;;16.60;15.10;;;;;;;7.40;100.00;100690.69;5038670;28;20258;-75
2023/04/18 04:18:52;;;;;;;16.80;15.20;;;;;;;7.41;100.00;100698.44;5035342;28;20256;-74
2023/04/18 04:21:17;;;;;;;17.13;15.53;;;;;;;7.40;100.00;100688.13;5036223;28;20187;-77
2023/04/18 04:23:42;;;;;;;16.43;14.93;;;;;;;7.38;100.00;100700.13;5045211;28;20190;-76
2023/04/18 04:26:08;;;;;;;17.10;15.57;;;;;;;7.40;100.00;100691.56;5041191;28;20216;-75
2023/04/18 04:28:34;;;;;;;16.47;14.97;;;;;;;7.40;100.00;100695.84;5041616;28;20662;-76
2023/04/18 04:31:00;;;;;;;15.80;14.40;;;;;;;7.37;100.00;100695.81;5033136;28;20656;-76
2023/04/18 04:33:28;;;;;;;15.60;14.23;;;;;;;7.36;100.00;100692.38;5034364;28;20236;-75
2023/04/18 04:35:54;;;;;;;16.77;15.37;;;;;;;7.34;100.00;100699.22;5046401;28;20289;-76
2023/04/18 04:38:21;;;;;;;16.30;14.90;;;;;;;7.34;100.00;100691.50;5034384;28;20251;-76
2023/04/18 04:40:47;;;;;;;16.63;15.23;;;;;;;7.36;100.00;100701.81;5041747;28;20199;-76
2023/04/18 04:43:14;;;;;;;15.10;13.80;;;;;;;7.34;100.00;100696.66;5032287;28;20193;-76
2023/04/18 04:45:40;;;;;;;16.63;15.00;;;;;;;7.32;100.00;100717.25;5034485;28;20249;-75
2023/04/18 04:48:05;;;;;;;16.33;15.00;;;;;;;7.31;100.00;100702.63;5029621;28;20568;-75
2023/04/18 04:50:34;;;;;;;16.00;14.70;;;;;;;7.28;100.00;100712.91;5041216;28;20197;-75
2023/04/18 04:53:00;;;;;;;15.87;14.37;;;;;;;7.29;100.00;100714.63;5035741;28;20208;-75
2023/04/18 04:55:25;;;;;;;16.13;14.63;;;;;;;7.32;100.00;100718.94;5034960;28;20290;-74
2023/04/18 04:57:50;;;;;;;16.00;14.70;;;;;;;7.33;100.00;100718.94;5032204;28;20261;-76
2023/04/18 05:00:19;;;;;;;15.50;14.10;;;;;;;7.35;100.00;100721.56;5038969;28;20248;-76
2023/04/18 05:02:46;;;;;;;14.97;13.57;;;;;;;7.33;100.00;100710.38;5043348;28;20499;-73
2023/04/18 05:05:11;;;;;;;15.47;14.07;;;;;;;7.36;100.00;100722.41;5037097;28;20193;-75
2023/04/18 05:07:36;;;;;;;15.73;14.37;;;;;;;7.35;100.00;100730.97;5040572;28;20241;-76
2023/04/18 05:10:02;;;;;;;15.40;13.97;;;;;;;7.35;100.00;100721.56;5034541;28;20189;-75
2023/04/18 05:12:27;;;;;;;16.17;14.67;;;;;;;7.38;100.00;100729.31;5044624;28;20314;-75
2023/04/18 05:14:53;;;;;;;15.10;13.83;;;;;;;7.37;100.00;100732.75;5037174;28;20194;-76
2023/04/18 05:17:18;;;;;;;16.00;14.47;;;;;;;7.39;100.00;100730.16;5036735;28;20587;-76
2023/04/18 05:19:43;;;;;;;16.20;14.70;;;;;;;7.39;100.00;100730.16;5036671;28;21163;-75
2023/04/18 05:22:09;;;;;;;15.83;14.23;;;;;;;7.40;100.00;100732.78;5035444;28;20187;-77
2023/04/18 05:24:35;;;;;;;15.23;13.93;;;;;;;7.43;100.00;100731.94;5033447;28;20185;-75
2023/04/18 05:27:00;;;;;;;15.77;14.33;;;;;;;7.48;100.00;100731.13;5041691;28;20211;-76
2023/04/18 05:29:25;;;;;;;15.10;13.70;;;;;;;7.45;100.00;100738.81;5033090;28;20659;-75
2023/04/18 05:31:51;;;;;;;16.70;15.00;;;;;;;7.48;100.00;100738.88;5039632;28;20256;-77
2023/04/18 05:34:16;;;;;;;14.80;13.43;;;;;;;7.50;100.00;100735.44;5030862;28;20191;-75
2023/04/18 05:36:42;;;;;;;15.47;14.03;;;;;;;7.53;100.00;100738.06;5032467;28;20339;-74
2023/04/18 05:39:07;;;;;;;14.53;13.13;;;;;;;7.59;100.00;100736.41;5041838;28;20183;-75
2023/04/18 05:41:32;;;;;;;15.10;13.70;;;;;;;7.66;100.00;100739.91;5034099;28;20185;-75
2023/04/18 05:43:58;;;;;;;14.37;13.17;;;;;;;7.74;100.00;100743.41;5032494;28;20187;-75
2023/04/18 05:46:23;;;;;;;15.37;13.87;;;;;;;7.73;100.00;100735.69;5037646;28;20197;-78
2023/04/18 05:48:48;;;;;;;14.47;13.20;;;;;;;7.70;99.66;100733.94;5046677;28;20181;-76
2023/04/18 05:51:14;;;;;;;15.00;13.53;;;;;;;7.61;99.74;100741.56;5033008;28;20189;-75
2023/04/18 05:53:39;;;;;;;15.33;13.93;;;;;;;7.66;100.00;100746.75;5035643;28;20253;-75
2023/04/18 05:56:05;;;;;;;14.90;13.40;;;;;;;7.73;100.00;100746.00;5036854;28;20239;-75
2023/04/18 05:58:30;;;;;;;14.30;12.90;;;;;;;7.76;99.63;100751.19;5036574;28;20204;-75
2023/04/18 06:00:56;;;;;;;14.93;13.53;;;;;;;7.74;99.98;100752.88;5044094;28;20179;-75
2023/04/18 06:03:21;;;;;;;16.80;15.17;;;;;;;7.67;99.40;100759.69;5051036;28;20190;-76
2023/04/18 06:05:46;;;;;;;15.53;13.93;;;;;;;7.53;99.36;100758.66;5038783;28;20259;-76
2023/04/18 06:08:12;;;;;;;15.03;13.83;;;;;;;7.56;99.69;100746.69;5033495;28;20197;-76
2023/04/18 06:10:37;;;;;;;14.87;13.60;;;;;;;7.52;99.67;100754.34;5039426;28;20709;-76
2023/04/18 06:13:02;;;;;;;14.83;13.47;;;;;;;7.48;100.00;100756.91;5030504;28;20206;-76
2023/04/18 06:15:28;;;;;;;14.93;13.47;;;;;;;7.51;100.00;100742.31;5030762;28;20210;-75
2023/04/18 06:17:53;;;;;;;15.33;13.93;;;;;;;7.59;100.00;100751.88;5028429;28;20638;-78
2023/04/18 06:20:18;;;;;;;15.10;13.80;;;;;;;7.63;100.00;100751.06;5030880;28;20188;-76
2023/04/18 06:22:44;;;;;;;15.20;13.90;;;;;;;7.66;100.00;100751.91;5035733;28;20196;-77
2023/04/18 06:25:09;;;;;;;15.10;13.67;;;;;;;7.63;100.00;100745.91;5038810;28;20264;-76
2023/04/18 06:27:35;;;;;;;14.53;13.13;;;;;;;7.69;100.00;100763.13;5034302;28;21158;-76
2023/04/18 06:30:01;;;;;;;15.43;13.87;;;;;;;7.72;100.00;100760.56;5039267;28;20742;-75
2023/04/18 06:32:26;;;;;;;14.97;13.53;;;;;;;7.82;100.00;100760.69;5032076;28;20228;-76
2023/04/18 06:34:52;;;;;;;14.80;13.40;;;;;;;7.88;99.77;100769.34;5026367;28;20194;-76
2023/04/18 06:37:17;;;;;;;15.23;13.80;;;;;;;7.90;98.83;100770.22;5029061;28;20292;-75
2023/04/18 06:39:42;;;;;;;15.20;13.80;;;;;;;7.85;98.87;100774.44;5029013;28;20194;-75
2023/04/18 06:42:08;;;;;;;15.13;13.73;;;;;;;7.81;98.98;100774.41;5031225;28;20190;-77
2023/04/18 06:44:34;;;;;;;15.03;13.73;;;;;;;7.80;99.32;100783.00;5033610;28;20277;-77
2023/04/18 06:47:00;;;;;;;14.13;12.83;;;;;;;7.83;99.16;100776.16;5026014;28;20208;-76
2023/04/18 06:49:25;;;;;;;15.17;13.87;;;;;;;7.91;99.48;100782.25;5032206;28;20812;-78
2023/04/18 06:51:51;;;;;;;15.23;13.83;;;;;;;7.97;99.27;100793.44;5028322;28;20202;-77
2023/04/18 06:54:16;;;;;;;13.67;12.37;;;;;;;8.01;98.65;100785.78;5031753;28;20185;-77
2023/04/18 06:56:41;;;;;;;14.83;13.50;;;;;;;8.07;98.78;100787.56;5036444;28;20255;-78
2023/04/18 06:59:07;;;;;;;15.30;13.73;;;;;;;7.98;98.75;100778.03;5031814;28;20712;-75
2023/04/18 07:01:32;;;;;;;15.03;13.60;;;;;;;7.97;98.64;100784.03;5028394;28;20185;-75
2023/04/18 07:03:58;;;;;;;15.87;14.23;;;;;;;7.96;99.01;100768.53;5036024;28;20204;-78
2023/04/18 07:06:23;;;;;;;14.93;13.43;;;;;;;7.93;99.42;100770.25;5033295;28;20205;-75
2023/04/18 07:08:48;;;;;;;15.33;13.93;;;;;;;8.04;99.10;100764.31;5041068;28;20594;-76
2023/04/18 07:11:14;;;;;;;14.37;12.93;;;;;;;8.18;98.89;100759.28;5049202;28;20181;-76
2023/04/18 07:13:39;;;;;;;14.93;13.53;;;;;;;8.35;98.43;100770.59;5036172;28;21004;-76
2023/04/18 07:16:05;;;;;;;15.40;13.90;;;;;;;8.44;97.33;100763.81;5035876;28;20693;-76
2023/04/18 07:18:32;;;;;;;14.67;13.27;;;;;;;8.57;97.23;100759.59;5032883;28;20201;-76
2023/04/18 07:20:57;;;;;;;14.57;13.37;;;;;;;8.81;96.42;100764.06;5032175;28;20289;-75
2023/04/18 07:23:23;;;;;;;15.17;13.80;;;;;;;8.95;95.98;100769.31;5033444;28;20306;-77
2023/04/18 07:25:48;;;;;;;14.80;13.30;;;;;;;8.89;95.92;100774.44;5031519;28;20604;-76
2023/04/18 07:28:13;;;;;;;14.63;13.23;;;;;;;9.01;95.81;100787.41;5030257;28;20187;-76
2023/04/18 07:30:39;;;;;;;13.97;12.67;;;;;;;9.06;95.71;100777.97;5039582;28;20232;-76
2023/04/18 07:33:05;;;;;;;14.67;13.47;;;;;;;8.94;95.76;100775.34;5043834;28;20694;-76
2023/04/18 07:35:30;;;;;;;15.50;14.10;;;;;;;8.93;95.93;100791.66;5034974;28;20693;-76
2023/04/18 07:37:55;;;;;;;14.27;12.97;;;;;;;8.93;96.74;100778.78;5024556;28;20178;-77
2023/04/18 07:40:21;;;;;;;15.33;13.80;;;;;;;8.94;97.53;100780.50;5023269;28;20179;-77
2023/04/18 07:42:46;;;;;;;15.13;13.73;;;;;;;8.85;96.94;100789.03;5035284;28;20218;-75
2023/04/18 07:45:11;;;;;;;15.90;14.43;;;;;;;8.79;97.37;100773.50;5031835;28;20184;-75
2023/04/18 07:47:37;;;;;;;15.43;14.03;;;;;;;8.69;97.82;100780.34;5034503;28;20186;-78
2023/04/18 07:50:02;;;;;;;15.43;13.77;;;;;;;8.60;98.23;100773.41;5034180;28;20184;-76
2023/04/18 07:52:28;;;;;;;15.13;13.77;;;;;;;8.66;98.45;100778.59;5045469;28;20210;-76
2023/04/18 07:54:53;;;;;;;16.20;14.60;;;;;;;8.66;97.96;100781.19;5034588;28;20178;-77
2023/04/18 07:57:18;;;;;;;15.50;14.00;;;;;;;8.64;97.92;100785.47;5030944;28;20428;-76
2023/04/18 07:59:44;;;;;;;15.03;13.63;;;;;;;8.76;97.75;100787.25;5033560;28;20180;-76
2023/04/18 08:02:09;;;;;;;15.40;13.90;;;;;;;8.85;98.01;100789.03;5031593;28;20573;-77
2023/04/18 08:04:34;;;;;;;15.63;14.13;;;;;;;8.95;98.20;100784.81;5050025;28;20181;-76
2023/04/18 08:07:00;;;;;;;15.03;13.63;;;;;;;9.16;97.75;100786.63;5032514;28;20220;-77
2023/04/18 08:09:25;;;;;;;15.30;13.90;;;;;;;9.21;96.44;100776.31;5030154;28;20187;-77
2023/04/18 08:11:50;;;;;;;15.30;13.77;;;;;;;9.24;96.37;100784.09;5044123;28;20651;-76
2023/04/18 08:14:16;;;;;;;15.80;14.40;;;;;;;9.24;96.67;100789.25;5032122;28;20179;-77
2023/04/18 08:16:41;;;;;;;14.87;13.23;;;;;;;9.20;97.33;100785.81;5030096;28;20221;-76
2023/04/18 08:19:06;;;;;;;15.17;13.67;;;;;;;9.26;97.69;100780.66;5036300;28;20198;-76
2023/04/18 08:21:32;;;;;;;15.17;13.77;;;;;;;9.26;97.55;100779.81;5041219;28;20206;-77
2023/04/18 08:23:57;;;;;;;16.13;14.73;;;;;;;9.27;97.22;100778.94;5038875;28;20182;-75
2023/04/18 08:26:23;;;;;;;16.20;13.57;;;;;;;9.36;97.62;100778.97;5032996;28;20212;-76
2023/04/18 08:28:48;;;;;;;16.30;14.60;;;;;;;9.36;97.60;100781.56;5037470;28;20703;-77
2023/04/18 08:31:14;;;;;;;15.57;14.13;;;;;;;9.37;97.28;100783.28;5027849;28;20648;-75
2023/04/18 08:33:40;;;;;;;15.60;14.03;;;;;;;9.41;97.88;100791.91;5032504;28;20211;-77
2023/04/18 08:36:05;;;;;;;16.27;14.60;;;;;;;9.37;97.37;100787.59;5029963;28;21079;-75
2023/04/18 08:38:31;;;;;;;14.93;13.43;;;;;;;9.39;97.81;100785.84;5029388;28;20172;-76
2023/04/18 08:40:56;;;;;;;14.77;13.47;;;;;;;9.50;97.80;100786.78;5028450;28;20233;-73
2023/04/18 08:43:23;;;;;;;15.17;13.77;;;;;;;9.57;97.63;100792.84;5042724;28;20187;-75
2023/04/18 08:45:48;;;;;;;13.97;12.67;;;;;;;9.58;96.89;100789.41;5042826;28;20207;-76
2023/04/18 08:48:15;;;;;;;14.73;13.40;;;;;;;9.47;97.14;100786.75;5035597;28;20187;-77
2023/04/18 08:50:40;;;;;;;14.13;12.90;;;;;;;9.48;97.85;100800.53;5042930;28;20291;-76
2023/04/18 08:53:06;;;;;;;15.67;14.27;;;;;;;9.41;98.47;100789.31;5034727;28;20230;-75
2023/04/18 08:55:34;;;;;;;16.50;14.83;;;;;;;9.47;97.95;100791.94;5039904;28;20214;-77
2023/04/18 08:58:00;;;;;;;15.90;14.40;;;;;;;9.50;98.32;100793.66;5042029;28;20197;-76
2023/04/18 09:00:28;;;;;;;15.33;13.93;;;;;;;9.51;97.96;100801.44;5046515;28;20182;-76
2023/04/18 09:02:55;;;;;;;14.43;13.13;;;;;;;9.50;98.12;100791.94;5041636;28;20646;-76
2023/04/18 09:05:23;;;;;;;14.53;13.30;;;;;;;9.46;98.95;100782.47;5032939;28;20204;-76
2023/04/18 09:07:51;;;;;;;14.40;13.10;;;;;;;9.53;98.17;100794.53;5038281;28;20215;-77
2023/04/18 09:10:32;;;;;;;15.20;13.80;;;;;;;9.57;98.71;100792.84;5044110;28;20590;-75
2023/04/18 09:12:59;;;;;;;13.93;12.73;;;;;;;9.69;98.68;100804.91;5038156;28;20190;-77
2023/04/18 09:15:27;;;;;;;14.10;12.80;;;;;;;9.77;97.83;100796.31;5035495;28;20716;-77
2023/04/18 09:17:57;;;;;;;15.37;13.77;;;;;;;9.84;97.72;100783.41;5040216;28;20179;-76
2023/04/18 09:20:35;;;;;;;15.43;14.03;;;;;;;10.02;97.46;100788.63;5032218;28;20269;-76
2023/04/18 09:23:03;;;;;;;14.07;12.70;;;;;;;10.13;95.78;100780.00;5043846;28;20564;-77
2023/04/18 09:25:36;;;;;;;14.23;12.93;;;;;;;10.23;95.77;100773.97;5059190;28;20613;-76
2023/04/18 09:28:22;;;;;;;14.47;13.20;;;;;;;10.30;94.74;100780.00;5049084;28;20667;-75
2023/04/18 09:30:50;;;;;;;14.97;13.60;;;;;;;10.27;94.24;100780.88;5064416;28;20600;-76
2023/04/18 09:33:16;;;;;;;13.80;12.57;;;;;;;10.44;94.22;100775.72;5033768;28;20214;-76
2023/04/18 09:35:41;;;;;;;15.57;14.00;;;;;;;10.62;93.64;100784.34;5050421;28;20195;-76
2023/04/18 09:38:07;;;;;;;15.17;13.80;;;;;;;10.73;93.62;100777.44;5031284;28;20212;-76
2023/04/18 09:40:32;;;;;;;14.43;13.07;;;;;;;10.88;93.60;100793.81;5042164;28;20184;-76
2023/04/18 09:42:58;;;;;;;14.90;13.50;;;;;;;10.92;92.49;100783.44;5045347;28;20222;-77
2023/04/18 09:45:24;;;;;;;15.67;14.17;;;;;;;11.12;92.01;100795.44;5031402;28;20299;-76
2023/04/18 09:47:51;;;;;;;14.97;13.57;;;;;;;11.37;92.24;100791.03;5042012;28;20468;-76
2023/04/18 09:50:17;;;;;;;15.80;14.20;;;;;;;11.42;92.40;100789.31;5032040;28;20490;-76
2023/04/18 09:52:44;;;;;;;16.27;14.87;;;;;;;11.40;91.17;100793.63;5040675;28;20264;-77
2023/04/18 09:55:12;;;;;;;16.63;15.13;;;;;;;11.36;91.47;100797.09;5027405;28;20543;-75
2023/04/18 09:57:41;;;;;;;15.77;13.87;;;;;;;11.46;91.82;100792.75;5042567;28;20716;-77
2023/04/18 10:00:20;;;;;;;15.50;14.10;;;;;;;11.75;91.80;100783.94;5029474;28;20188;-75
2023/04/18 10:02:50;;;;;;;15.37;13.87;;;;;;;11.79;89.87;100777.88;5030266;28;20195;-77
2023/04/18 10:05:17;;;;;;;16.37;14.97;;;;;;;11.90;90.90;100780.41;5030026;28;20741;-76
2023/04/18 10:07:47;;;;;;;16.57;14.93;;;;;;;11.97;89.48;100779.47;5031869;28;20888;-77
2023/04/18 10:10:13;;;;;;;15.37;13.97;;;;;;;11.83;89.24;100782.19;5033585;28;20954;-76
2023/04/18 10:12:40;;;;;;;15.80;14.40;;;;;;;11.90;89.66;100804.59;5040444;28;20233;-77
2023/04/18 10:15:07;;;;;;;14.93;13.57;;;;;;;11.98;88.90;100780.38;5030381;28;20611;-77
2023/04/18 10:17:51;;;;;;;14.37;13.07;;;;;;;12.07;89.50;100782.06;5036914;28;20713;-77
2023/04/18 10:20:19;;;;;;;16.30;14.80;;;;;;;12.10;89.29;100777.72;5032174;28;20196;-77
2023/04/18 10:22:46;;;;;;;16.23;14.73;;;;;;;12.15;88.94;100788.91;5030320;28;20211;-76
2023/04/18 10:25:11;;;;;;;14.23;12.97;;;;;;;12.11;88.98;100774.25;5030968;28;20171;-77
2023/04/18 10:27:57;;;;;;;14.87;13.57;;;;;;;12.07;89.56;100780.31;5017241;28;20728;-78
2023/04/18 10:30:43;;;;;;;14.67;13.27;;;;;;;12.07;89.90;100769.09;5043011;28;20181;-77
2023/04/18 10:33:34;;;;;;;15.40;13.87;;;;;;;12.06;90.02;100781.19;5029860;28;20264;-78
2023/04/18 10:36:12;;;;;;;15.30;13.90;;;;;;;12.00;90.24;100770.88;5033227;28;20202;-76
2023/04/18 10:38:47;;;;;;;13.83;12.53;;;;;;;12.06;90.17;100764.78;5035540;28;20214;-76
2023/04/18 10:41:30;;;;;;;14.33;13.03;;;;;;;11.98;90.18;100762.22;5034593;28;20197;-78
2023/04/18 10:44:05;;;;;;;14.83;13.53;;;;;;;12.01;90.95;100760.47;5034088;28;20183;-77
2023/04/18 10:46:30;;;;;;;14.97;13.57;;;;;;;12.01;91.02;100751.84;5037741;28;20216;-77
2023/04/18 10:49:12;;;;;;;14.37;13.07;;;;;;;12.03;89.69;100757.84;5027920;28;20237;-76
2023/04/18 10:51:38;;;;;;;16.33;14.93;;;;;;;12.10;90.52;100746.56;5031730;28;20193;-78
2023/04/18 10:54:08;;;;;;;15.77;14.37;;;;;;;12.28;89.65;100763.72;5034793;28;20542;-77
2023/04/18 10:56:34;;;;;;;15.20;13.93;;;;;;;12.16;89.29;100756.03;5033714;28;20217;-77
2023/04/18 10:59:01;;;;;;;16.67;14.37;;;;;;;12.31;88.64;100747.28;5038724;28;20190;-75
2023/04/18 11:01:29;;;;;;;15.67;14.17;;;;;;;12.58;89.62;100751.34;5032133;28;20595;-77
2023/04/18 11:03:55;;;;;;;14.27;12.97;;;;;;;12.65;88.07;100746.94;5035595;28;20185;-76
2023/04/18 11:06:21;;;;;;;14.00;12.80;;;;;;;12.56;88.66;100744.44;5035511;28;20235;-76
2023/04/18 11:08:48;;;;;;;14.70;13.30;;;;;;;12.69;88.51;100753.00;5033776;28;20196;-74